Time;durP1;ratioP1;P1;durP2;ratioP2;P2;SDS_P1;SDS_P2;PMS_P1;PMS_P2;Temp;Humidity;BMP_temperature;BMP_pressure;BME280_temperature;BME280_humidity;BME280_pressure;Samples;Min_cycle;Max_cycle;Signal;HPM_P1;HPM_P2
2022/01/10 00:02:06;;;;;;;8.80;4.28;;;;;;;3.38;68.25;96591.34;5996674;23;20267;-87
2022/01/10 00:04:32;;;;;;;8.18;3.80;;;;;;;3.35;68.80;96596.91;5973380;23;20515;-86
2022/01/10 00:06:57;;;;;;;9.90;3.88;;;;;;;3.32;68.46;96592.16;5995224;23;20406;-86
2022/01/10 00:09:22;;;;;;;9.40;3.38;;;;;;;3.26;68.91;96596.38;5995888;23;20347;-86
2022/01/10 00:11:48;;;;;;;8.35;3.70;;;;;;;3.21;69.26;96592.88;6030188;23;20166;-86
2022/01/10 00:14:13;;;;;;;7.70;3.72;;;;;;;3.21;68.91;96598.03;5995728;23;20251;-86
2022/01/10 00:16:39;;;;;;;8.13;3.10;;;;;;;3.25;69.00;96606.88;6030056;23;20166;-86
2022/01/10 00:19:04;;;;;;;7.72;3.78;;;;;;;3.29;68.54;96611.41;5995116;23;20217;-86
2022/01/10 00:21:30;;;;;;;7.35;3.75;;;;;;;3.39;68.68;96605.75;5995912;23;20249;-86
2022/01/10 00:23:55;;;;;;;11.60;5.72;;;;;;;3.33;67.63;96616.91;6030178;23;20314;-86
2022/01/10 00:26:21;;;;;;;21.33;10.30;;;;;;;3.32;67.41;96610.19;6029560;23;20605;-85
2022/01/10 00:28:46;;;;;;;8.50;4.40;;;;;;;3.33;67.43;96611.75;5972399;23;20339;-86
2022/01/10 00:31:11;;;;;;;6.18;3.17;;;;;;;3.30;67.31;96617.31;5996189;23;20223;-86
2022/01/10 00:33:37;;;;;;;4.68;2.88;;;;;;;3.27;67.11;96625.47;6030488;23;20177;-86
2022/01/10 00:36:03;;;;;;;6.07;2.60;;;;;;;3.15;67.73;96631.31;6030278;23;20123;-86
2022/01/10 00:38:28;;;;;;;5.43;2.58;;;;;;;3.13;68.19;96628.13;6029106;23;20227;-86
2022/01/10 00:40:53;;;;;;;4.78;2.90;;;;;;;3.13;68.44;96629.94;5995546;23;20147;-85
2022/01/10 00:43:30;;;;;;;9.45;3.40;;;;;;;3.18;68.03;96636.00;5996903;23;20593;-85
2022/01/10 00:45:55;;;;;;;7.80;4.32;;;;;;;3.03;68.48;96640.69;6030736;23;20237;-85
2022/01/10 00:48:21;;;;;;;7.35;3.67;;;;;;;2.93;69.15;96635.22;5997360;23;20233;-85
2022/01/10 00:50:46;;;;;;;7.35;3.45;;;;;;;2.98;69.02;96648.22;5997643;23;20492;-85
2022/01/10 00:53:11;;;;;;;5.13;2.90;;;;;;;2.94;69.01;96641.94;5995381;23;20425;-86
2022/01/10 00:55:37;;;;;;;6.20;2.72;;;;;;;2.97;68.87;96650.03;5994987;23;20194;-86
2022/01/10 00:58:02;;;;;;;5.22;2.42;;;;;;;2.98;68.56;96646.47;5994781;23;20257;-86
2022/01/10 01:00:28;;;;;;;5.75;2.92;;;;;;;2.98;68.62;96648.22;5996142;23;20249;-86
2022/01/10 01:02:53;;;;;;;5.78;2.45;;;;;;;2.93;68.89;96654.00;6031034;23;20174;-86
2022/01/10 01:05:22;;;;;;;5.88;3.38;;;;;;;2.99;69.19;96662.69;6030829;23;20218;-86
2022/01/10 01:07:48;;;;;;;5.45;2.78;;;;;;;3.00;68.90;96662.47;5973483;23;20192;-85
2022/01/10 01:12:51;;;;;;;6.72;3.50;;;;;;;3.04;68.31;96670.56;6029600;23;20160;-85
2022/01/10 01:15:24;;;;;;;6.72;3.30;;;;;;;2.98;68.94;96666.22;5989477;23;20240;-86
2022/01/10 01:25:56;;;;;;;6.53;3.45;;;;;;;2.94;69.28;96681.28;6030108;23;20260;-86
2022/01/10 01:28:22;;;;;;;4.63;3.13;;;;;;;3.00;69.23;96689.97;5996861;23;20174;-85
2022/01/10 01:30:47;;;;;;;7.03;3.10;;;;;;;2.98;69.33;96689.38;5996509;23;20186;-85
2022/01/10 01:33:15;;;;;;;4.55;2.72;;;;;;;3.03;69.08;96699.06;6030588;23;20189;-86
2022/01/10 01:35:40;;;;;;;5.63;2.70;;;;;;;3.00;69.01;96710.56;6033843;23;20238;-86
2022/01/10 01:38:07;;;;;;;6.15;3.55;;;;;;;3.00;69.41;96718.28;5999269;23;20254;-85
2022/01/10 01:40:34;;;;;;;6.78;2.90;;;;;;;3.00;69.92;96721.63;6034835;23;20178;-85
2022/01/10 01:42:59;;;;;;;5.25;2.80;;;;;;;2.97;69.70;96710.97;5999154;23;20559;-85
2022/01/10 01:45:46;;;;;;;5.60;2.85;;;;;;;2.90;69.84;96729.00;6034122;23;20170;-85
2022/01/10 01:48:11;;;;;;;6.13;2.63;;;;;;;3.10;69.88;96728.09;6008730;23;20238;-85
2022/01/10 01:50:37;;;;;;;6.05;3.63;;;;;;;3.12;69.59;96726.88;6033380;23;20159;-86
2022/01/10 01:53:04;;;;;;;6.35;3.22;;;;;;;3.14;69.66;96740.31;5991506;23;20190;-86
2022/01/10 01:55:29;;;;;;;6.18;3.08;;;;;;;3.14;69.43;96735.19;5993503;23;20142;-86
2022/01/10 01:57:55;;;;;;;5.35;2.90;;;;;;;3.23;68.90;96733.16;5974040;23;20284;-86
2022/01/10 02:00:24;;;;;;;5.35;3.03;;;;;;;3.26;68.34;96739.69;6007292;23;20256;-86
2022/01/10 02:02:51;;;;;;;7.18;4.68;;;;;;;3.27;67.67;96738.66;6030168;23;20157;-87
2022/01/10 02:05:17;;;;;;;7.18;3.55;;;;;;;3.16;68.27;96743.47;5992650;23;20256;-87
2022/01/10 02:07:42;;;;;;;12.40;5.43;;;;;;;3.08;68.73;96754.00;6032335;23;20166;-86
2022/01/10 02:10:08;;;;;;;6.85;3.38;;;;;;;3.02;68.55;96751.47;6031883;23;20151;-86
2022/01/10 02:12:34;;;;;;;5.90;2.92;;;;;;;3.04;68.63;96752.84;6009096;23;20259;-86
2022/01/10 02:14:59;;;;;;;9.15;3.15;;;;;;;3.18;68.42;96756.13;5974245;23;20177;-87
2022/01/10 02:17:33;;;;;;;6.45;3.55;;;;;;;3.16;68.40;96760.72;5999335;23;20277;-87
2022/01/10 02:20:08;;;;;;;5.57;3.13;;;;;;;3.00;68.82;96764.56;5976960;23;20079;-86
2022/01/10 02:22:36;;;;;;;4.65;2.63;;;;;;;3.13;68.61;96763.69;6009619;23;20244;-86
2022/01/10 02:25:02;;;;;;;5.18;2.75;;;;;;;3.15;68.53;96769.41;5999943;23;20078;-86
2022/01/10 02:27:28;;;;;;;6.70;2.97;;;;;;;3.09;68.92;96770.25;6009879;23;20607;-87
2022/01/10 02:29:53;;;;;;;6.10;2.90;;;;;;;3.07;69.37;96775.59;6033202;23;20586;-86
2022/01/10 02:32:20;;;;;;;4.60;2.35;;;;;;;3.04;68.89;96773.44;5976563;23;20194;-86
2022/01/10 02:34:45;;;;;;;4.70;2.58;;;;;;;3.07;69.36;96777.34;5976588;23;20245;-86
2022/01/10 02:37:10;;;;;;;4.57;2.35;;;;;;;3.06;69.39;96781.72;5976105;23;20670;-86
2022/01/10 02:39:37;;;;;;;6.72;2.85;;;;;;;3.13;69.18;96792.75;5976875;23;20190;-86
2022/01/10 02:42:03;;;;;;;4.70;2.55;;;;;;;3.11;69.41;96789.59;5999966;23;20617;-86
2022/01/10 02:44:29;;;;;;;4.28;2.20;;;;;;;3.18;68.99;96795.50;6010001;23;20222;-86
2022/01/10 02:46:56;;;;;;;6.50;3.13;;;;;;;3.18;69.66;96799.88;5998123;23;20356;-86
2022/01/10 02:49:26;;;;;;;7.35;2.80;;;;;;;3.11;69.03;96794.75;5998049;23;20615;-86
2022/01/10 02:51:56;;;;;;;4.82;2.47;;;;;;;3.18;69.04;96805.78;5998366;23;20597;-86
2022/01/10 02:54:23;;;;;;;5.97;2.63;;;;;;;3.11;69.50;96802.47;5967077;23;20235;-86
2022/01/10 02:56:53;;;;;;;7.65;3.05;;;;;;;3.13;68.85;96807.41;5950451;23;20549;-86
2022/01/10 02:59:20;;;;;;;6.80;3.63;;;;;;;3.12;68.80;96800.69;5950608;23;20191;-86
2022/01/10 03:01:46;;;;;;;5.50;2.80;;;;;;;3.09;69.10;96807.03;6007210;23;20591;-86
2022/01/10 03:04:12;;;;;;;6.97;3.30;;;;;;;3.09;68.91;96807.03;5950956;23;20583;-86
2022/01/10 03:06:39;;;;;;;5.53;2.90;;;;;;;3.10;69.11;96818.91;6008169;23;20080;-86
2022/01/10 03:09:06;;;;;;;7.43;3.10;;;;;;;3.12;69.57;96824.63;5983603;23;20267;-86
2022/01/10 03:11:36;;;;;;;7.35;3.10;;;;;;;3.03;69.71;96828.41;5951228;23;20273;-86
2022/01/10 03:14:01;;;;;;;5.47;2.72;;;;;;;3.13;69.49;96828.78;5951428;23;20227;-86
2022/01/10 03:16:27;;;;;;;5.22;2.97;;;;;;;3.24;69.14;96829.94;5983950;23;20113;-86
2022/01/10 03:18:52;;;;;;;6.55;3.20;;;;;;;3.18;69.26;96828.94;5984730;23;20278;-86
2022/01/10 03:21:20;;;;;;;6.57;2.65;;;;;;;3.18;69.77;96831.53;5984351;23;20663;-86
2022/01/10 03:23:51;;;;;;;5.50;2.80;;;;;;;3.08;69.38;96836.31;5951944;23;20199;-86
2022/01/10 03:26:19;;;;;;;4.10;2.22;;;;;;;3.16;69.50;96851.53;5975390;23;20167;-86
2022/01/10 03:28:45;;;;;;;5.00;2.80;;;;;;;3.17;69.40;96852.31;5983759;23;20208;-86
2022/01/10 03:31:11;;;;;;;4.70;2.63;;;;;;;3.22;69.28;96846.56;6008905;23;20643;-86
2022/01/10 03:33:36;;;;;;;5.22;2.58;;;;;;;3.23;69.20;96851.50;6008339;23;20167;-86
2022/01/10 03:36:02;;;;;;;6.72;3.03;;;;;;;3.18;68.97;96857.25;5975344;23;20626;-86
2022/01/10 03:38:27;;;;;;;6.30;3.13;;;;;;;3.09;68.74;96849.97;6008486;23;20467;-86
2022/01/10 03:40:53;;;;;;;6.75;2.75;;;;;;;3.12;69.68;96858.06;5974979;23;20594;-85
2022/01/10 03:43:18;;;;;;;5.25;3.08;;;;;;;3.15;69.05;96860.25;5975877;23;20314;-86
2022/01/10 03:45:44;;;;;;;5.78;3.05;;;;;;;3.10;69.18;96862.66;5952875;23;20229;-86
2022/01/10 03:48:09;;;;;;;4.63;2.42;;;;;;;3.03;68.96;96864.44;5985056;23;20259;-86
2022/01/10 03:50:35;;;;;;;6.10;3.08;;;;;;;3.01;69.01;96861.28;5976511;23;20275;-86
2022/01/10 03:53:00;;;;;;;6.47;2.88;;;;;;;3.04;69.43;96876.31;5984898;23;20239;-86
2022/01/10 03:55:25;;;;;;;5.88;2.63;;;;;;;3.05;69.25;96880.47;5953123;23;20210;-85
2022/01/10 03:57:51;;;;;;;5.80;2.63;;;;;;;3.02;69.40;96880.06;5953223;23;20488;-85
2022/01/10 04:00:17;;;;;;;6.25;3.28;;;;;;;3.03;68.86;96894.50;5985988;23;20260;-85
2022/01/10 04:02:51;;;;;;;5.55;2.83;;;;;;;2.84;69.50;96868.66;6010628;23;20144;-85
2022/01/10 04:05:17;;;;;;;7.10;3.00;;;;;;;2.99;68.96;96888.97;5979250;23;20223;-86
2022/01/10 04:07:42;;;;;;;5.32;2.55;;;;;;;2.94;69.07;96893.94;5952790;23;20283;-85
2022/01/10 04:10:08;;;;;;;6.43;3.28;;;;;;;2.96;69.06;96900.44;5976693;23;20718;-86
2022/01/10 04:12:33;;;;;;;7.60;2.78;;;;;;;2.92;68.58;96895.94;5953129;23;20177;-85
2022/01/10 04:14:59;;;;;;;5.60;3.17;;;;;;;3.00;68.99;96911.16;5977153;23;20215;-85
2022/01/10 04:17:24;;;;;;;4.25;2.22;;;;;;;2.92;68.71;96890.78;5954068;23;20239;-85
2022/01/10 04:19:49;;;;;;;5.35;2.40;;;;;;;2.98;68.85;96913.09;5977292;23;20184;-85
2022/01/10 04:22:15;;;;;;;6.05;2.70;;;;;;;2.95;68.83;96914.31;5977085;23;20340;-85
2022/01/10 04:24:42;;;;;;;6.18;2.58;;;;;;;2.96;68.77;96923.59;5978052;23;20637;-85
2022/01/10 04:27:09;;;;;;;5.78;3.03;;;;;;;2.83;68.39;96917.69;6010309;23;20312;-85
2022/01/10 04:29:34;;;;;;;5.18;2.60;;;;;;;2.81;68.89;96926.41;5977068;23;20227;-85
2022/01/10 04:32:00;;;;;;;5.93;3.33;;;;;;;2.81;68.82;96917.88;6010732;23;20262;-85
2022/01/10 04:34:26;;;;;;;6.43;2.85;;;;;;;2.80;68.87;96927.41;5953274;23;20192;-85
2022/01/10 04:36:51;;;;;;;6.28;2.78;;;;;;;2.74;68.69;96930.78;5953610;23;20242;-85
2022/01/10 04:39:16;;;;;;;6.63;2.88;;;;;;;2.74;68.68;96942.81;5976108;23;20255;-85
2022/01/10 04:41:42;;;;;;;4.35;3.03;;;;;;;2.74;68.93;96948.78;5977047;23;20665;-85
2022/01/10 04:44:07;;;;;;;3.67;2.10;;;;;;;2.72;68.85;96944.81;6001276;23;20397;-85
2022/01/10 04:46:33;;;;;;;6.85;2.67;;;;;;;2.73;68.95;96951.53;6000327;23;20168;-85
2022/01/10 04:49:00;;;;;;;7.55;3.50;;;;;;;2.72;68.97;96955.88;6009849;23;20454;-85
2022/01/10 04:51:27;;;;;;;5.65;2.70;;;;;;;2.63;68.95;96942.44;5952954;23;20091;-85
2022/01/10 04:53:53;;;;;;;4.22;2.42;;;;;;;2.73;69.04;96954.13;5953051;23;20148;-85
2022/01/10 04:56:20;;;;;;;5.45;2.55;;;;;;;2.71;69.33;96964.59;5953201;23;20183;-85
2022/01/10 04:58:46;;;;;;;4.30;2.47;;;;;;;2.80;69.25;96963.38;6009301;23;20693;-85
2022/01/10 05:01:13;;;;;;;7.18;2.80;;;;;;;2.83;69.00;96974.25;5985738;23;20170;-85
2022/01/10 05:03:39;;;;;;;7.18;2.40;;;;;;;2.76;68.95;96961.41;5985821;23;20497;-85
2022/01/10 05:06:04;;;;;;;5.18;2.08;;;;;;;2.84;69.61;96988.72;5952611;23;20378;-85
2022/01/10 05:08:30;;;;;;;5.95;2.58;;;;;;;2.78;69.01;96988.50;5975910;23;20245;-85
2022/01/10 05:10:56;;;;;;;7.30;2.60;;;;;;;2.78;69.58;96990.31;5951876;23;20319;-85
2022/01/10 05:13:22;;;;;;;4.57;2.70;;;;;;;2.71;69.74;96990.31;6009337;23;20594;-85
2022/01/10 05:15:50;;;;;;;5.80;2.90;;;;;;;2.71;69.98;96998.00;5975816;23;20227;-85
2022/01/10 05:18:17;;;;;;;5.63;3.17;;;;;;;2.80;69.78;97009.66;5985413;23;20256;-85
2022/01/10 05:20:42;;;;;;;6.10;3.05;;;;;;;2.82;69.20;97012.03;5999753;23;20262;-85
2022/01/10 05:23:08;;;;;;;6.65;3.05;;;;;;;2.74;69.06;97002.75;5975575;23;20185;-85
2022/01/10 05:25:36;;;;;;;6.30;3.33;;;;;;;2.77;69.01;97014.41;6009072;23;20231;-85
2022/01/10 05:28:09;;;;;;;7.68;4.10;;;;;;;2.72;69.24;97021.94;5985551;23;20653;-85
2022/01/10 05:30:35;;;;;;;8.82;5.18;;;;;;;2.71;68.89;97031.44;6009128;23;20531;-85
2022/01/10 05:33:00;;;;;;;9.85;4.18;;;;;;;2.71;69.24;97030.63;5975453;23;20175;-85
2022/01/10 05:35:26;;;;;;;9.38;5.05;;;;;;;2.63;69.53;97032.41;5952727;23;20287;-85
2022/01/10 05:37:51;;;;;;;6.75;4.07;;;;;;;2.62;70.04;97035.97;5951334;23;20235;-85
2022/01/10 05:40:19;;;;;;;8.65;3.80;;;;;;;2.63;69.35;97049.63;5951771;23;20191;-84
2022/01/10 05:42:44;;;;;;;9.15;4.10;;;;;;;2.66;70.14;97053.56;5985797;23;20312;-85
2022/01/10 05:45:10;;;;;;;5.78;3.33;;;;;;;2.60;69.65;97044.84;5984533;23;20185;-85
2022/01/10 05:47:40;;;;;;;8.60;3.67;;;;;;;2.68;70.06;97065.25;5951681;23;20096;-85
2022/01/10 05:50:06;;;;;;;6.82;3.40;;;;;;;2.67;69.43;97061.06;5975826;23;20164;-85
2022/01/10 05:52:32;;;;;;;10.38;4.22;;;;;;;2.71;69.90;97071.75;5975253;23;20231;-85
2022/01/10 05:54:57;;;;;;;8.27;3.80;;;;;;;2.66;69.96;97076.69;5951487;23;20678;-85
2022/01/10 05:57:23;;;;;;;8.95;4.68;;;;;;;2.59;70.14;97082.63;5950922;23;20305;-84
2022/01/10 05:59:48;;;;;;;8.32;4.53;;;;;;;2.59;70.13;97081.84;5950679;23;20330;-85
2022/01/10 06:02:14;;;;;;;10.23;5.35;;;;;;;2.59;70.44;97080.06;5950640;23;20088;-84
2022/01/10 06:04:39;;;;;;;14.02;5.50;;;;;;;2.64;70.07;97087.19;5950613;23;20171;-85
2022/01/10 06:07:04;;;;;;;12.02;6.15;;;;;;;2.71;70.68;97097.47;5951244;23;20172;-84
2022/01/10 06:09:30;;;;;;;10.13;5.50;;;;;;;2.73;69.98;97100.66;6007677;23;20580;-84
2022/01/10 06:11:55;;;;;;;12.75;6.43;;;;;;;2.75;70.04;97107.16;5974165;23;20270;-84
2022/01/10 06:14:20;;;;;;;11.30;6.10;;;;;;;2.70;70.08;97104.38;5950774;23;20312;-85
2022/01/10 06:16:46;;;;;;;9.70;6.07;;;;;;;2.85;70.08;97116.28;5950730;23;20337;-85
2022/01/10 06:19:11;;;;;;;11.45;6.35;;;;;;;2.87;69.26;97119.47;5949749;23;20318;-85
2022/01/10 06:21:37;;;;;;;12.73;6.78;;;;;;;2.79;69.25;97116.09;5975243;23;20271;-84
2022/01/10 06:24:02;;;;;;;12.00;7.60;;;;;;;2.83;69.55;97131.09;5974856;23;20610;-84
2022/01/10 06:26:28;;;;;;;13.82;6.10;;;;;;;2.81;69.40;97126.97;5951510;23;20191;-83
2022/01/10 06:28:53;;;;;;;10.13;5.43;;;;;;;2.80;69.62;97132.31;6008173;23;20267;-84
2022/01/10 06:31:18;;;;;;;11.48;5.10;;;;;;;2.80;69.36;97140.00;5982682;23;20262;-84
2022/01/10 06:33:44;;;;;;;7.70;4.63;;;;;;;2.78;69.26;97145.34;6009140;23;20586;-84
2022/01/10 06:36:09;;;;;;;9.43;5.10;;;;;;;2.76;69.43;97149.91;5975514;23;20226;-84
2022/01/10 06:38:35;;;;;;;12.55;5.43;;;;;;;2.71;69.69;97169.44;5984679;23;20580;-84
2022/01/10 06:41:01;;;;;;;11.45;5.90;;;;;;;2.70;69.99;97173.81;6008458;23;20183;-84
2022/01/10 06:43:26;;;;;;;10.38;5.07;;;;;;;2.68;69.79;97175.00;5975470;23;20199;-83
2022/01/10 06:45:52;;;;;;;11.70;5.75;;;;;;;2.61;69.56;97174.97;5999325;23;20199;-84
2022/01/10 06:48:17;;;;;;;11.25;6.45;;;;;;;2.59;70.04;97182.09;5998287;23;20278;-83
2022/01/10 06:50:46;;;;;;;13.93;5.70;;;;;;;2.57;69.86;97176.31;5983922;23;20651;-83
2022/01/10 06:53:13;;;;;;;12.00;5.68;;;;;;;2.59;69.54;97184.66;5951453;23;20187;-83
2022/01/10 06:55:39;;;;;;;12.93;6.55;;;;;;;2.63;69.25;97196.13;6031065;23;20091;-84
2022/01/10 06:58:05;;;;;;;13.10;6.53;;;;;;;2.55;69.11;97191.16;6032320;23;20174;-83
2022/01/10 07:00:30;;;;;;;9.68;5.25;;;;;;;2.60;69.37;97204.22;5999327;23;20542;-83
2022/01/10 07:02:56;;;;;;;14.43;6.55;;;;;;;2.61;69.41;97206.59;5998143;23;20718;-84
2022/01/10 07:05:21;;;;;;;13.55;6.65;;;;;;;2.62;69.64;97215.09;5998647;23;20185;-83
2022/01/10 07:07:46;;;;;;;13.50;6.85;;;;;;;2.62;69.13;97220.25;6032241;23;20265;-83
2022/01/10 07:10:12;;;;;;;15.43;6.90;;;;;;;2.67;68.71;97223.03;5998507;23;20090;-83
2022/01/10 07:12:37;;;;;;;19.55;6.03;;;;;;;2.64;69.31;97226.00;5999037;23;20230;-83
2022/01/10 07:15:03;;;;;;;15.18;6.45;;;;;;;2.65;68.59;97227.56;6032197;23;20257;-83
2022/01/10 07:17:29;;;;;;;15.95;5.07;;;;;;;2.63;69.52;97239.81;5998297;23;20296;-83
2022/01/10 07:19:55;;;;;;;13.63;4.97;;;;;;;2.61;69.46;97252.88;6033319;23;20289;-83
2022/01/10 07:22:20;;;;;;;15.48;5.05;;;;;;;2.61;69.11;97259.78;6032268;23;20618;-84
2022/01/10 07:24:46;;;;;;;12.30;5.93;;;;;;;2.59;69.20;97264.34;6033413;23;20237;-84
2022/01/10 07:27:11;;;;;;;17.40;6.18;;;;;;;2.63;69.03;97275.81;5999862;23;20262;-83
2022/01/10 07:29:37;;;;;;;14.27;5.80;;;;;;;2.64;69.24;97274.84;6032719;23;20237;-84
2022/01/10 07:32:05;;;;;;;13.30;5.18;;;;;;;2.60;69.51;97261.59;6032473;23;20230;-84
2022/01/10 07:34:30;;;;;;;15.43;5.80;;;;;;;2.72;68.99;97282.38;6033160;23;20230;-84
2022/01/10 07:36:56;;;;;;;9.02;4.10;;;;;;;2.71;69.25;97283.38;6008668;23;20249;-83
2022/01/10 07:39:21;;;;;;;12.63;5.03;;;;;;;2.75;69.25;97297.41;5998627;23;20102;-84
2022/01/10 07:41:46;;;;;;;17.00;5.93;;;;;;;2.67;69.62;97287.28;5998684;23;20229;-84
2022/01/10 07:44:12;;;;;;;13.20;4.80;;;;;;;2.69;69.26;97294.81;6033126;23;20140;-84
2022/01/10 07:46:38;;;;;;;14.27;5.10;;;;;;;2.70;69.43;97286.13;6032781;23;20198;-84
2022/01/10 07:49:03;;;;;;;15.30;5.75;;;;;;;2.75;69.88;97296.63;6056053;23;20582;-84
2022/01/10 07:51:29;;;;;;;10.30;5.07;;;;;;;2.78;69.70;97306.53;6032705;23;20053;-84
2022/01/10 07:53:54;;;;;;;9.95;4.88;;;;;;;2.75;69.85;97310.28;6030310;23;20250;-84
2022/01/10 07:56:20;;;;;;;9.27;4.63;;;;;;;2.77;70.01;97307.53;5975160;23;20284;-83
2022/01/10 07:58:50;;;;;;;10.93;4.55;;;;;;;2.81;69.73;97314.66;6033207;23;20633;-84
2022/01/10 08:01:16;;;;;;;12.88;5.53;;;;;;;2.84;69.46;97322.97;6032981;23;20288;-84
2022/01/10 08:03:41;;;;;;;15.95;4.97;;;;;;;2.85;69.17;97330.50;6005957;23;20511;-84
2022/01/10 08:06:06;;;;;;;12.35;5.05;;;;;;;2.86;69.55;97329.50;5997835;23;20594;-84
2022/01/10 08:08:33;;;;;;;11.63;4.53;;;;;;;2.87;69.92;97338.81;5974427;23;20302;-84
2022/01/10 08:10:59;;;;;;;9.63;4.22;;;;;;;2.89;70.63;97347.13;5975540;23;20189;-84
2022/01/10 08:13:24;;;;;;;7.93;4.50;;;;;;;2.92;70.17;97346.75;6032470;23;20344;-84
2022/01/10 08:15:50;;;;;;;7.70;3.50;;;;;;;2.95;70.12;97348.94;6009201;23;20193;-84
2022/01/10 08:18:17;;;;;;;9.48;4.15;;;;;;;2.99;69.92;97359.66;5974838;23;20369;-84
2022/01/10 08:20:42;;;;;;;10.98;4.68;;;;;;;3.02;69.82;97356.69;6032093;23;20255;-84
2022/01/10 08:23:08;;;;;;;11.05;5.22;;;;;;;3.01;70.22;97362.81;5998600;23;20175;-84
2022/01/10 08:25:33;;;;;;;9.52;5.47;;;;;;;3.08;69.83;97363.63;6032136;23;20215;-84
2022/01/10 08:27:58;;;;;;;13.10;6.85;;;;;;;3.06;70.06;97373.31;5998586;23;20182;-84
2022/01/10 08:30:24;;;;;;;10.55;5.57;;;;;;;3.17;69.73;97369.41;5998920;23;20143;-84
2022/01/10 08:32:50;;;;;;;11.63;7.13;;;;;;;3.12;70.63;97367.44;5974650;23;20522;-84
2022/01/10 08:35:19;;;;;;;13.60;6.18;;;;;;;3.19;70.25;97382.91;5966035;23;20179;-84
2022/01/10 08:37:45;;;;;;;14.13;7.00;;;;;;;3.25;69.61;97392.41;5997483;23;20345;-84
2022/01/10 08:40:11;;;;;;;13.68;6.05;;;;;;;3.33;69.42;97394.03;6032541;23;20267;-84
2022/01/10 08:42:37;;;;;;;15.80;7.57;;;;;;;3.33;70.46;97394.81;6031760;23;20197;-84
2022/01/10 08:45:03;;;;;;;17.30;7.07;;;;;;;3.37;69.48;97395.22;5974118;23;20267;-84
2022/01/10 08:47:29;;;;;;;18.55;8.73;;;;;;;3.40;69.92;97404.34;5997917;23;20275;-84
2022/01/10 08:49:55;;;;;;;19.40;8.60;;;;;;;3.45;70.28;97412.28;5969954;23;20159;-84
2022/01/10 08:52:20;;;;;;;16.98;9.25;;;;;;;3.48;70.10;97407.56;5985899;23;20677;-84
2022/01/10 08:54:48;;;;;;;16.75;8.25;;;;;;;3.55;69.93;97408.38;5967460;23;20120;-84
2022/01/10 08:57:13;;;;;;;10.68;5.90;;;;;;;3.61;69.85;97421.44;5947772;23;20205;-84
2022/01/10 08:59:39;;;;;;;15.38;7.85;;;;;;;3.60;70.18;97414.69;5974000;23;20586;-84
2022/01/10 09:02:04;;;;;;;19.25;7.75;;;;;;;3.63;69.90;97412.53;5974687;23;20167;-84
2022/01/10 09:04:30;;;;;;;15.60;7.70;;;;;;;3.74;69.95;97434.38;5998842;23;20530;-84
2022/01/10 09:06:55;;;;;;;18.23;9.40;;;;;;;3.73;69.64;97433.56;6007288;23;20226;-84
2022/01/10 09:09:22;;;;;;;24.20;11.82;;;;;;;3.77;69.93;97435.75;6007466;23;20246;-84
2022/01/10 09:11:48;;;;;;;20.95;10.43;;;;;;;3.83;69.64;97445.28;6007859;23;20160;-84
2022/01/10 09:14:14;;;;;;;19.13;10.38;;;;;;;3.84;69.73;97439.94;5974756;23;20612;-84
2022/01/10 09:16:40;;;;;;;16.63;9.30;;;;;;;3.85;70.01;97445.88;5974106;23;20655;-83
2022/01/10 09:19:06;;;;;;;16.48;7.80;;;;;;;3.90;69.65;97449.47;5973487;23;20175;-84
2022/01/10 09:21:32;;;;;;;16.70;8.20;;;;;;;3.90;70.23;97452.03;6007200;23;20571;-83
2022/01/10 09:23:57;;;;;;;12.82;6.03;;;;;;;3.91;69.94;97453.63;5974541;23;20171;-83
2022/01/10 09:26:23;;;;;;;9.25;5.25;;;;;;;3.90;70.02;97457.19;6006476;23;20192;-83
2022/01/10 09:28:49;;;;;;;16.98;8.13;;;;;;;3.96;70.30;97462.53;5973325;23;20263;-83
2022/01/10 09:31:14;;;;;;;13.98;7.10;;;;;;;3.98;70.10;97465.75;5973621;23;20310;-83
2022/01/10 09:33:43;;;;;;;17.98;9.10;;;;;;;4.00;70.00;97474.06;5982886;23;20259;-83
2022/01/10 09:36:08;;;;;;;11.88;5.70;;;;;;;4.11;69.24;97476.88;5983192;23;20161;-83
2022/01/10 09:38:34;;;;;;;6.78;3.88;;;;;;;4.22;69.52;97480.66;6006983;23;20211;-83
2022/01/10 09:41:00;;;;;;;9.85;5.43;;;;;;;4.30;69.27;97483.06;5950777;23;20262;-83
2022/01/10 09:43:25;;;;;;;14.05;5.53;;;;;;;4.33;69.39;97489.59;5974886;23;20251;-84
2022/01/10 09:45:53;;;;;;;10.90;5.70;;;;;;;4.31;69.01;97494.94;5973719;23;20719;-83
2022/01/10 09:48:18;;;;;;;10.45;5.40;;;;;;;4.29;69.38;97496.91;6007947;23;20183;-83
2022/01/10 09:50:43;;;;;;;10.85;5.70;;;;;;;4.36;69.69;97507.25;6007141;23;20148;-83
2022/01/10 09:53:10;;;;;;;10.55;5.82;;;;;;;4.37;69.62;97502.88;5973056;23;20211;-83
2022/01/10 09:55:35;;;;;;;10.00;5.57;;;;;;;4.41;69.04;97499.72;5996720;23;20238;-83
2022/01/10 09:58:03;;;;;;;12.95;7.72;;;;;;;4.36;69.23;97501.31;6000590;23;20167;-84
2022/01/10 10:00:29;;;;;;;15.50;7.38;;;;;;;4.35;69.38;97510.00;6000200;23;20894;-83
2022/01/10 10:02:55;;;;;;;13.75;7.55;;;;;;;4.39;69.34;97511.22;5976683;23;20143;-84
2022/01/10 10:05:20;;;;;;;16.13;7.88;;;;;;;4.55;69.53;97510.84;5995854;23;20332;-84
2022/01/10 10:07:48;;;;;;;18.40;9.55;;;;;;;4.60;68.87;97512.81;5997391;23;20646;-84
2022/01/10 10:10:13;;;;;;;8.95;4.70;;;;;;;4.55;68.32;97510.84;5999707;23;20166;-83
2022/01/10 10:12:43;;;;;;;8.90;4.47;;;;;;;4.43;69.33;97528.66;6033814;23;20182;-84
2022/01/10 10:15:12;;;;;;;10.55;5.60;;;;;;;4.41;69.72;97527.28;6000417;23;20253;-84
2022/01/10 10:17:39;;;;;;;10.93;6.00;;;;;;;4.39;70.42;97531.84;5999298;23;20535;-84
2022/01/10 10:20:14;;;;;;;13.75;6.32;;;;;;;4.26;70.46;97527.44;6010022;23;20574;-84
2022/01/10 10:22:40;;;;;;;;;;;;;;;4.18;70.79;97530.19;5976998;23;20189;-85
2022/01/10 10:25:10;;;;;;;9.88;5.25;;;;;;;4.30;70.08;97528.63;6000364;23;20066;-85
2022/01/10 10:27:40;;;;;;;12.27;6.32;;;;;;;4.30;70.07;97526.88;6000341;23;20261;-85
2022/01/10 10:30:13;;;;;;;20.70;11.13;;;;;;;4.41;70.08;97540.97;6000824;23;20201;-84
2022/01/10 10:32:38;;;;;;;13.77;7.38;;;;;;;4.56;70.21;97548.53;6034311;23;20217;-85
2022/01/10 10:35:06;;;;;;;15.68;7.93;;;;;;;4.59;69.90;97542.19;5999115;23;20277;-85
2022/01/10 10:37:39;;;;;;;10.13;5.60;;;;;;;4.61;69.17;97553.09;5999248;23;20171;-85
2022/01/10 10:40:10;;;;;;;8.93;4.97;;;;;;;4.64;69.83;97550.13;6000584;23;20585;-85
2022/01/10 10:42:38;;;;;;;12.45;5.93;;;;;;;4.65;69.70;97551.72;6019797;23;20303;-85
2022/01/10 10:45:09;;;;;;;11.95;6.10;;;;;;;4.59;69.94;97553.31;6000162;23;20275;-86
2022/01/10 10:47:36;;;;;;;14.32;4.78;;;;;;;4.57;70.55;97560.41;5997739;23;20213;-86
2022/01/10 10:50:05;;;;;;;10.10;4.78;;;;;;;4.65;69.77;97549.13;5975332;23;20321;-86
2022/01/10 10:52:35;;;;;;;13.55;5.07;;;;;;;4.61;70.77;97550.50;5976067;23;20189;-86
2022/01/10 10:55:07;;;;;;;8.55;4.93;;;;;;;4.60;70.23;97570.34;6022758;23;20259;-86
2022/01/10 10:57:32;;;;;;;12.75;5.65;;;;;;;4.75;71.19;97570.19;5998646;23;20151;-86
2022/01/10 11:00:04;;;;;;;13.75;5.13;;;;;;;4.65;70.36;97572.34;5975266;23;20298;-85
2022/01/10 11:02:30;;;;;;;12.15;5.60;;;;;;;4.88;70.36;97567.63;5998455;23;20534;-85
2022/01/10 11:04:55;;;;;;;10.40;5.20;;;;;;;4.91;70.13;97576.75;5999610;23;20143;-86
2022/01/10 11:07:23;;;;;;;17.30;6.60;;;;;;;4.94;70.57;97580.72;6031296;23;20170;-85
2022/01/10 11:09:49;;;;;;;11.32;5.57;;;;;;;5.14;69.48;97578.13;6032256;23;20259;-85
2022/01/10 11:12:17;;;;;;;11.93;5.57;;;;;;;5.16;69.69;97589.06;5999185;23;20264;-85
2022/01/10 11:14:43;;;;;;;13.82;5.75;;;;;;;5.23;69.28;97595.81;6033859;23;20275;-85
2022/01/10 11:17:17;;;;;;;8.65;5.00;;;;;;;5.18;69.72;97592.25;5998721;23;20776;-85
2022/01/10 11:19:43;;;;;;;9.25;5.18;;;;;;;5.42;69.81;97601.94;5999468;23;20179;-85
2022/01/10 11:22:09;;;;;;;12.70;4.65;;;;;;;5.53;69.18;97602.31;5999189;23;20483;-85
2022/01/10 11:24:48;;;;;;;13.02;5.78;;;;;;;5.40;68.91;97610.91;5999913;23;20178;-85
2022/01/10 11:27:33;;;;;;;13.07;5.85;;;;;;;5.32;69.21;97617.03;5998493;23;20496;-85
2022/01/10 11:30:02;;;;;;;12.75;5.13;;;;;;;5.39;69.12;97617.03;6032702;23;20194;-85
2022/01/10 11:32:56;;;;;;;11.43;5.38;;;;;;;5.46;68.66;97624.78;5974370;23;20259;-84
2022/01/10 11:35:25;;;;;;;11.30;5.28;;;;;;;5.52;68.47;97611.88;5998595;23;20526;-85
2022/01/10 11:37:50;;;;;;;13.15;5.60;;;;;;;5.48;68.35;97617.63;5997086;23;20251;-84
2022/01/10 11:40:16;;;;;;;14.25;6.05;;;;;;;5.57;68.33;97624.97;6031627;23;20642;-84
2022/01/10 11:42:56;;;;;;;11.93;6.00;;;;;;;5.45;68.29;97629.16;5996858;23;20174;-84
2022/01/10 11:45:22;;;;;;;13.77;5.70;;;;;;;5.66;67.56;97625.56;5997630;23;20266;-84
2022/01/10 11:48:04;;;;;;;13.60;5.68;;;;;;;5.44;67.98;97628.34;5996506;23;20270;-84